sensor_id;sensor_type;location;lat;lon;timestamp;P1;durP1;ratioP1;P2;durP2;ratioP2
62788;SDS011;66401;42.016;21.454;2023-03-01T00:01:27;38.87;;;18.30;;
62788;SDS011;66401;42.016;21.454;2023-03-01T00:03:55;35.67;;;17.60;;
62788;SDS011;66401;42.016;21.454;2023-03-01T00:06:21;35.70;;;17.37;;
62788;SDS011;66401;42.016;21.454;2023-03-01T00:08:47;41.83;;;18.93;;
62788;SDS011;66401;42.016;21.454;2023-03-01T00:11:32;38.10;;;17.63;;
62788;SDS011;66401;42.016;21.454;2023-03-01T00:13:59;33.53;;;16.63;;
62788;SDS011;66401;42.016;21.454;2023-03-01T00:16:33;38.90;;;17.43;;
62788;SDS011;66401;42.016;21.454;2023-03-01T00:19:01;40.13;;;18.17;;
62788;SDS011;66401;42.016;21.454;2023-03-01T00:21:27;36.27;;;18.47;;
62788;SDS011;66401;42.016;21.454;2023-03-01T00:23:53;36.70;;;18.17;;
62788;SDS011;66401;42.016;21.454;2023-03-01T00:26:20;36.03;;;17.13;;
62788;SDS011;66401;42.016;21.454;2023-03-01T00:28:49;35.93;;;16.67;;
62788;SDS011;66401;42.016;21.454;2023-03-01T00:31:17;35.93;;;17.50;;
62788;SDS011;66401;42.016;21.454;2023-03-01T00:33:44;39.80;;;17.27;;
62788;SDS011;66401;42.016;21.454;2023-03-01T00:36:11;32.03;;;15.93;;
62788;SDS011;66401;42.016;21.454;2023-03-01T00:38:39;41.27;;;17.37;;
62788;SDS011;66401;42.016;21.454;2023-03-01T00:41:07;36.10;;;17.67;;
62788;SDS011;66401;42.016;21.454;2023-03-01T00:43:35;43.27;;;18.63;;
62788;SDS011;66401;42.016;21.454;2023-03-01T00:46:07;40.57;;;18.73;;
62788;SDS011;66401;42.016;21.454;2023-03-01T00:48:35;35.87;;;16.50;;
62788;SDS011;66401;42.016;21.454;2023-03-01T00:51:07;36.63;;;16.90;;
62788;SDS011;66401;42.016;21.454;2023-03-01T00:53:37;36.03;;;18.27;;
62788;SDS011;66401;42.016;21.454;2023-03-01T00:56:04;42.93;;;18.47;;
62788;SDS011;66401;42.016;21.454;2023-03-01T00:58:30;37.33;;;17.53;;
62788;SDS011;66401;42.016;21.454;2023-03-01T01:00:56;37.97;;;16.63;;
62788;SDS011;66401;42.016;21.454;2023-03-01T01:03:21;36.27;;;19.23;;
62788;SDS011;66401;42.016;21.454;2023-03-01T01:05:49;40.17;;;18.17;;
62788;SDS011;66401;42.016;21.454;2023-03-01T01:08:18;34.63;;;18.13;;
62788;SDS011;66401;42.016;21.454;2023-03-01T01:10:44;34.83;;;16.57;;
62788;SDS011;66401;42.016;21.454;2023-03-01T01:13:11;38.80;;;16.97;;
62788;SDS011;66401;42.016;21.454;2023-03-01T01:15:37;36.07;;;16.87;;
62788;SDS011;66401;42.016;21.454;2023-03-01T01:18:02;34.40;;;17.33;;
62788;SDS011;66401;42.016;21.454;2023-03-01T01:20:28;36.37;;;17.43;;
62788;SDS011;66401;42.016;21.454;2023-03-01T01:22:54;35.23;;;16.93;;
62788;SDS011;66401;42.016;21.454;2023-03-01T01:25:19;29.93;;;16.83;;
62788;SDS011;66401;42.016;21.454;2023-03-01T01:27:45;31.57;;;15.77;;
62788;SDS011;66401;42.016;21.454;2023-03-01T01:30:11;36.37;;;15.00;;
62788;SDS011;66401;42.016;21.454;2023-03-01T01:32:37;31.23;;;15.63;;
62788;SDS011;66401;42.016;21.454;2023-03-01T01:35:02;34.67;;;16.10;;
62788;SDS011;66401;42.016;21.454;2023-03-01T01:37:28;33.47;;;16.03;;
62788;SDS011;66401;42.016;21.454;2023-03-01T01:39:58;35.90;;;16.57;;
62788;SDS011;66401;42.016;21.454;2023-03-01T01:42:24;28.80;;;14.33;;
62788;SDS011;66401;42.016;21.454;2023-03-01T01:48:04;32.40;;;15.47;;
62788;SDS011;66401;42.016;21.454;2023-03-01T01:50:35;32.33;;;16.13;;
62788;SDS011;66401;42.016;21.454;2023-03-01T01:53:05;31.57;;;14.47;;
62788;SDS011;66401;42.016;21.454;2023-03-01T01:55:39;32.90;;;16.10;;
62788;SDS011;66401;42.016;21.454;2023-03-01T01:58:13;28.07;;;14.33;;
62788;SDS011;66401;42.016;21.454;2023-03-01T02:00:42;32.73;;;15.33;;
62788;SDS011;66401;42.016;21.454;2023-03-01T02:03:12;36.87;;;17.30;;
62788;SDS011;66401;42.016;21.454;2023-03-01T02:05:50;34.27;;;15.70;;
62788;SDS011;66401;42.016;21.454;2023-03-01T02:08:23;29.60;;;16.33;;
62788;SDS011;66401;42.016;21.454;2023-03-01T02:10:51;35.00;;;16.90;;
62788;SDS011;66401;42.016;21.454;2023-03-01T02:13:17;27.80;;;14.60;;
62788;SDS011;66401;42.016;21.454;2023-03-01T02:15:43;31.17;;;15.83;;
62788;SDS011;66401;42.016;21.454;2023-03-01T02:18:10;27.87;;;14.87;;
62788;SDS011;66401;42.016;21.454;2023-03-01T02:20:43;35.03;;;16.70;;
62788;SDS011;66401;42.016;21.454;2023-03-01T02:23:16;34.40;;;16.50;;
62788;SDS011;66401;42.016;21.454;2023-03-01T02:30:39;29.53;;;14.63;;
62788;SDS011;66401;42.016;21.454;2023-03-01T02:33:25;29.30;;;15.33;;
62788;SDS011;66401;42.016;21.454;2023-03-01T02:35:52;30.47;;;13.93;;
62788;SDS011;66401;42.016;21.454;2023-03-01T02:38:19;35.03;;;16.13;;
62788;SDS011;66401;42.016;21.454;2023-03-01T02:40:45;27.93;;;14.30;;
62788;SDS011;66401;42.016;21.454;2023-03-01T02:43:12;27.40;;;13.90;;
62788;SDS011;66401;42.016;21.454;2023-03-01T02:45:42;24.90;;;13.77;;
62788;SDS011;66401;42.016;21.454;2023-03-01T02:48:13;28.40;;;14.37;;
62788;SDS011;66401;42.016;21.454;2023-03-01T02:53:35;27.50;;;12.97;;
62788;SDS011;66401;42.016;21.454;2023-03-01T02:56:12;31.83;;;14.97;;
62788;SDS011;66401;42.016;21.454;2023-03-01T02:58:41;31.27;;;14.67;;
62788;SDS011;66401;42.016;21.454;2023-03-01T03:01:17;30.63;;;15.73;;
62788;SDS011;66401;42.016;21.454;2023-03-01T03:03:45;33.13;;;14.90;;
62788;SDS011;66401;42.016;21.454;2023-03-01T03:06:11;30.73;;;14.73;;
62788;SDS011;66401;42.016;21.454;2023-03-01T03:08:37;34.07;;;15.50;;
62788;SDS011;66401;42.016;21.454;2023-03-01T03:11:03;30.53;;;14.60;;
62788;SDS011;66401;42.016;21.454;2023-03-01T03:13:28;33.83;;;14.50;;
62788;SDS011;66401;42.016;21.454;2023-03-01T03:15:55;33.33;;;15.13;;
62788;SDS011;66401;42.016;21.454;2023-03-01T03:18:21;32.47;;;15.80;;
62788;SDS011;66401;42.016;21.454;2023-03-01T03:20:50;31.17;;;15.27;;
62788;SDS011;66401;42.016;21.454;2023-03-01T03:23:18;28.57;;;14.63;;
62788;SDS011;66401;42.016;21.454;2023-03-01T03:25:48;31.47;;;15.93;;
62788;SDS011;66401;42.016;21.454;2023-03-01T03:28:15;31.60;;;14.73;;
62788;SDS011;66401;42.016;21.454;2023-03-01T03:30:41;30.63;;;15.57;;
62788;SDS011;66401;42.016;21.454;2023-03-01T03:33:07;32.97;;;15.70;;
62788;SDS011;66401;42.016;21.454;2023-03-01T03:35:38;32.33;;;15.40;;
62788;SDS011;66401;42.016;21.454;2023-03-01T03:38:09;30.13;;;14.70;;
62788;SDS011;66401;42.016;21.454;2023-03-01T03:40:42;34.83;;;14.80;;
62788;SDS011;66401;42.016;21.454;2023-03-01T03:43:21;30.60;;;14.17;;
62788;SDS011;66401;42.016;21.454;2023-03-01T03:45:48;30.90;;;14.43;;
62788;SDS011;66401;42.016;21.454;2023-03-01T03:48:16;28.87;;;14.67;;
62788;SDS011;66401;42.016;21.454;2023-03-01T03:50:47;25.67;;;12.87;;
62788;SDS011;66401;42.016;21.454;2023-03-01T03:53:18;23.70;;;11.97;;
62788;SDS011;66401;42.016;21.454;2023-03-01T03:55:44;22.90;;;12.80;;
62788;SDS011;66401;42.016;21.454;2023-03-01T03:58:10;24.33;;;12.57;;
62788;SDS011;66401;42.016;21.454;2023-03-01T04:00:42;23.13;;;12.87;;
62788;SDS011;66401;42.016;21.454;2023-03-01T04:03:09;26.53;;;12.80;;
62788;SDS011;66401;42.016;21.454;2023-03-01T04:05:36;28.20;;;13.17;;
62788;SDS011;66401;42.016;21.454;2023-03-01T04:08:03;26.03;;;11.87;;
62788;SDS011;66401;42.016;21.454;2023-03-01T04:10:35;26.77;;;13.00;;
62788;SDS011;66401;42.016;21.454;2023-03-01T04:13:03;25.13;;;11.87;;
62788;SDS011;66401;42.016;21.454;2023-03-01T04:15:31;24.53;;;10.67;;
62788;SDS011;66401;42.016;21.454;2023-03-01T04:17:57;23.30;;;12.00;;
62788;SDS011;66401;42.016;21.454;2023-03-01T04:20:25;22.87;;;12.70;;
62788;SDS011;66401;42.016;21.454;2023-03-01T04:25:50;20.93;;;11.40;;
62788;SDS011;66401;42.016;21.454;2023-03-01T04:30:51;20.17;;;11.13;;
62788;SDS011;66401;42.016;21.454;2023-03-01T04:33:17;20.93;;;11.07;;
62788;SDS011;66401;42.016;21.454;2023-03-01T04:35:43;21.00;;;11.90;;
62788;SDS011;66401;42.016;21.454;2023-03-01T04:38:09;22.27;;;10.63;;
62788;SDS011;66401;42.016;21.454;2023-03-01T04:40:34;19.97;;;10.03;;
62788;SDS011;66401;42.016;21.454;2023-03-01T04:43:01;22.17;;;11.67;;
62788;SDS011;66401;42.016;21.454;2023-03-01T04:45:27;23.73;;;11.47;;
62788;SDS011;66401;42.016;21.454;2023-03-01T04:47:52;21.70;;;10.73;;
62788;SDS011;66401;42.016;21.454;2023-03-01T04:50:18;23.63;;;11.70;;
62788;SDS011;66401;42.016;21.454;2023-03-01T04:52:48;24.20;;;11.97;;
62788;SDS011;66401;42.016;21.454;2023-03-01T04:55:14;18.63;;;11.47;;
62788;SDS011;66401;42.016;21.454;2023-03-01T04:57:40;21.43;;;10.90;;
62788;SDS011;66401;42.016;21.454;2023-03-01T05:00:06;20.67;;;11.37;;
62788;SDS011;66401;42.016;21.454;2023-03-01T05:05:25;18.80;;;11.17;;
62788;SDS011;66401;42.016;21.454;2023-03-01T05:07:57;20.13;;;10.40;;
62788;SDS011;66401;42.016;21.454;2023-03-01T05:10:25;21.03;;;11.23;;
62788;SDS011;66401;42.016;21.454;2023-03-01T05:12:53;22.30;;;11.00;;
62788;SDS011;66401;42.016;21.454;2023-03-01T05:15:19;21.87;;;10.70;;
62788;SDS011;66401;42.016;21.454;2023-03-01T05:17:47;23.00;;;10.77;;
62788;SDS011;66401;42.016;21.454;2023-03-01T05:20:13;19.33;;;11.23;;
62788;SDS011;66401;42.016;21.454;2023-03-01T05:22:39;19.27;;;10.57;;
62788;SDS011;66401;42.016;21.454;2023-03-01T05:25:04;17.90;;;10.43;;
62788;SDS011;66401;42.016;21.454;2023-03-01T05:27:32;20.13;;;10.47;;
62788;SDS011;66401;42.016;21.454;2023-03-01T05:29:58;21.07;;;10.70;;
62788;SDS011;66401;42.016;21.454;2023-03-01T05:32:23;18.93;;;10.73;;
62788;SDS011;66401;42.016;21.454;2023-03-01T05:34:49;18.37;;;9.73;;
62788;SDS011;66401;42.016;21.454;2023-03-01T05:37:14;20.60;;;11.50;;
62788;SDS011;66401;42.016;21.454;2023-03-01T05:39:40;20.73;;;10.67;;
62788;SDS011;66401;42.016;21.454;2023-03-01T05:42:09;20.73;;;10.57;;
62788;SDS011;66401;42.016;21.454;2023-03-01T05:44:36;24.63;;;12.03;;
62788;SDS011;66401;42.016;21.454;2023-03-01T05:47:02;17.83;;;11.13;;
62788;SDS011;66401;42.016;21.454;2023-03-01T05:49:27;21.60;;;10.93;;
62788;SDS011;66401;42.016;21.454;2023-03-01T05:51:53;21.90;;;11.57;;
62788;SDS011;66401;42.016;21.454;2023-03-01T05:54:19;26.97;;;11.37;;
62788;SDS011;66401;42.016;21.454;2023-03-01T05:56:46;20.60;;;11.60;;
62788;SDS011;66401;42.016;21.454;2023-03-01T05:59:12;20.17;;;11.30;;
62788;SDS011;66401;42.016;21.454;2023-03-01T06:01:38;20.80;;;11.23;;
62788;SDS011;66401;42.016;21.454;2023-03-01T06:04:04;20.27;;;11.53;;
62788;SDS011;66401;42.016;21.454;2023-03-01T06:06:34;25.33;;;10.23;;
62788;SDS011;66401;42.016;21.454;2023-03-01T06:09:02;20.80;;;10.97;;
62788;SDS011;66401;42.016;21.454;2023-03-01T06:11:28;21.73;;;10.60;;
62788;SDS011;66401;42.016;21.454;2023-03-01T06:13:54;17.80;;;10.13;;
62788;SDS011;66401;42.016;21.454;2023-03-01T06:16:19;18.37;;;10.67;;
62788;SDS011;66401;42.016;21.454;2023-03-01T06:18:45;27.70;;;11.03;;
62788;SDS011;66401;42.016;21.454;2023-03-01T06:21:10;20.70;;;11.13;;
62788;SDS011;66401;42.016;21.454;2023-03-01T06:23:36;18.83;;;10.43;;
62788;SDS011;66401;42.016;21.454;2023-03-01T06:26:05;24.60;;;10.73;;
62788;SDS011;66401;42.016;21.454;2023-03-01T06:28:34;21.00;;;10.77;;
62788;SDS011;66401;42.016;21.454;2023-03-01T06:31:00;18.27;;;10.03;;
62788;SDS011;66401;42.016;21.454;2023-03-01T06:33:26;19.50;;;10.40;;
62788;SDS011;66401;42.016;21.454;2023-03-01T06:35:54;17.90;;;10.17;;
62788;SDS011;66401;42.016;21.454;2023-03-01T06:38:20;18.70;;;9.97;;
62788;SDS011;66401;42.016;21.454;2023-03-01T06:40:50;17.50;;;9.87;;
62788;SDS011;66401;42.016;21.454;2023-03-01T06:43:17;18.00;;;10.30;;
62788;SDS011;66401;42.016;21.454;2023-03-01T06:45:43;21.93;;;10.00;;
62788;SDS011;66401;42.016;21.454;2023-03-01T06:48:08;17.30;;;10.27;;
62788;SDS011;66401;42.016;21.454;2023-03-01T06:50:34;22.20;;;10.17;;
62788;SDS011;66401;42.016;21.454;2023-03-01T06:53:00;19.30;;;9.67;;
62788;SDS011;66401;42.016;21.454;2023-03-01T06:55:26;18.07;;;9.57;;
62788;SDS011;66401;42.016;21.454;2023-03-01T06:57:55;22.47;;;10.93;;
62788;SDS011;66401;42.016;21.454;2023-03-01T07:00:22;20.47;;;10.80;;
62788;SDS011;66401;42.016;21.454;2023-03-01T07:02:48;21.30;;;10.97;;
62788;SDS011;66401;42.016;21.454;2023-03-01T07:05:13;20.03;;;10.47;;
62788;SDS011;66401;42.016;21.454;2023-03-01T07:07:39;22.83;;;12.20;;
62788;SDS011;66401;42.016;21.454;2023-03-01T07:10:04;22.03;;;12.77;;
62788;SDS011;66401;42.016;21.454;2023-03-01T07:12:30;22.40;;;11.40;;
62788;SDS011;66401;42.016;21.454;2023-03-01T07:14:56;22.10;;;12.07;;
62788;SDS011;66401;42.016;21.454;2023-03-01T07:17:21;25.27;;;13.53;;
62788;SDS011;66401;42.016;21.454;2023-03-01T07:19:47;27.93;;;12.93;;
62788;SDS011;66401;42.016;21.454;2023-03-01T07:22:12;28.73;;;14.20;;
62788;SDS011;66401;42.016;21.454;2023-03-01T07:24:38;26.30;;;12.67;;
62788;SDS011;66401;42.016;21.454;2023-03-01T07:27:03;28.93;;;14.47;;
62788;SDS011;66401;42.016;21.454;2023-03-01T07:29:29;25.83;;;14.37;;
62788;SDS011;66401;42.016;21.454;2023-03-01T07:31:55;27.70;;;14.70;;
62788;SDS011;66401;42.016;21.454;2023-03-01T07:34:20;24.23;;;13.37;;
62788;SDS011;66401;42.016;21.454;2023-03-01T07:36:46;30.50;;;14.93;;
62788;SDS011;66401;42.016;21.454;2023-03-01T07:39:12;26.23;;;14.27;;
62788;SDS011;66401;42.016;21.454;2023-03-01T07:41:38;29.77;;;15.40;;
62788;SDS011;66401;42.016;21.454;2023-03-01T07:44:03;28.17;;;15.17;;
62788;SDS011;66401;42.016;21.454;2023-03-01T07:46:29;27.43;;;14.13;;
62788;SDS011;66401;42.016;21.454;2023-03-01T07:48:55;27.53;;;14.13;;
62788;SDS011;66401;42.016;21.454;2023-03-01T07:51:20;32.40;;;15.10;;
62788;SDS011;66401;42.016;21.454;2023-03-01T07:53:46;26.53;;;13.37;;
62788;SDS011;66401;42.016;21.454;2023-03-01T07:56:15;30.83;;;14.70;;
62788;SDS011;66401;42.016;21.454;2023-03-01T07:58:44;23.77;;;14.50;;
62788;SDS011;66401;42.016;21.454;2023-03-01T08:01:11;26.23;;;14.20;;
62788;SDS011;66401;42.016;21.454;2023-03-01T08:03:39;22.70;;;13.97;;
62788;SDS011;66401;42.016;21.454;2023-03-01T08:06:05;34.73;;;17.43;;
62788;SDS011;66401;42.016;21.454;2023-03-01T08:08:33;26.80;;;15.87;;
62788;SDS011;66401;42.016;21.454;2023-03-01T08:10:59;30.50;;;16.80;;
62788;SDS011;66401;42.016;21.454;2023-03-01T08:13:26;32.93;;;16.93;;
62788;SDS011;66401;42.016;21.454;2023-03-01T08:15:52;29.03;;;14.33;;
62788;SDS011;66401;42.016;21.454;2023-03-01T08:18:18;24.90;;;13.33;;
62788;SDS011;66401;42.016;21.454;2023-03-01T08:20:45;25.23;;;13.70;;
62788;SDS011;66401;42.016;21.454;2023-03-01T08:23:10;25.17;;;13.17;;
62788;SDS011;66401;42.016;21.454;2023-03-01T08:25:37;26.53;;;12.70;;
62788;SDS011;66401;42.016;21.454;2023-03-01T08:28:03;25.30;;;12.37;;
62788;SDS011;66401;42.016;21.454;2023-03-01T08:30:29;27.17;;;13.33;;
62788;SDS011;66401;42.016;21.454;2023-03-01T08:32:54;27.60;;;13.97;;
62788;SDS011;66401;42.016;21.454;2023-03-01T08:35:20;23.13;;;13.17;;
62788;SDS011;66401;42.016;21.454;2023-03-01T08:37:47;24.57;;;12.63;;
62788;SDS011;66401;42.016;21.454;2023-03-01T08:40:13;24.37;;;12.03;;
62788;SDS011;66401;42.016;21.454;2023-03-01T08:42:39;25.73;;;13.50;;
62788;SDS011;66401;42.016;21.454;2023-03-01T08:45:06;22.37;;;12.03;;
62788;SDS011;66401;42.016;21.454;2023-03-01T08:47:32;22.37;;;12.77;;
62788;SDS011;66401;42.016;21.454;2023-03-01T08:49:58;22.43;;;12.07;;
62788;SDS011;66401;42.016;21.454;2023-03-01T08:52:24;24.13;;;12.50;;
62788;SDS011;66401;42.016;21.454;2023-03-01T08:54:51;21.77;;;12.10;;
62788;SDS011;66401;42.016;21.454;2023-03-01T08:57:16;24.67;;;12.77;;
62788;SDS011;66401;42.016;21.454;2023-03-01T08:59:42;20.00;;;12.63;;
62788;SDS011;66401;42.016;21.454;2023-03-01T09:02:15;25.90;;;12.70;;
62788;SDS011;66401;42.016;21.454;2023-03-01T09:04:41;22.37;;;12.87;;
62788;SDS011;66401;42.016;21.454;2023-03-01T09:07:07;23.70;;;12.67;;
62788;SDS011;66401;42.016;21.454;2023-03-01T09:09:33;29.53;;;13.20;;
62788;SDS011;66401;42.016;21.454;2023-03-01T09:11:59;25.67;;;13.73;;
62788;SDS011;66401;42.016;21.454;2023-03-01T09:14:25;20.00;;;12.67;;
62788;SDS011;66401;42.016;21.454;2023-03-01T09:16:50;23.87;;;13.00;;
62788;SDS011;66401;42.016;21.454;2023-03-01T09:19:16;21.07;;;12.43;;
62788;SDS011;66401;42.016;21.454;2023-03-01T09:21:41;19.93;;;11.87;;
62788;SDS011;66401;42.016;21.454;2023-03-01T09:24:16;21.50;;;12.57;;
62788;SDS011;66401;42.016;21.454;2023-03-01T09:26:43;21.47;;;12.23;;
62788;SDS011;66401;42.016;21.454;2023-03-01T09:29:11;20.37;;;12.53;;
62788;SDS011;66401;42.016;21.454;2023-03-01T09:31:37;23.70;;;13.37;;
62788;SDS011;66401;42.016;21.454;2023-03-01T09:34:03;25.33;;;14.17;;
62788;SDS011;66401;42.016;21.454;2023-03-01T09:36:28;24.00;;;13.23;;
62788;SDS011;66401;42.016;21.454;2023-03-01T09:38:54;22.23;;;13.60;;
62788;SDS011;66401;42.016;21.454;2023-03-01T09:46:58;25.07;;;13.73;;
62788;SDS011;66401;42.016;21.454;2023-03-01T09:49:26;23.67;;;13.27;;
62788;SDS011;66401;42.016;21.454;2023-03-01T09:54:31;26.83;;;13.67;;
62788;SDS011;66401;42.016;21.454;2023-03-01T09:57:04;26.57;;;14.23;;
62788;SDS011;66401;42.016;21.454;2023-03-01T10:10:32;34.23;;;17.37;;
62788;SDS011;66401;42.016;21.454;2023-03-01T10:13:10;32.53;;;18.33;;
62788;SDS011;66401;42.016;21.454;2023-03-01T10:15:55;38.67;;;19.83;;
62788;SDS011;66401;42.016;21.454;2023-03-01T10:18:27;42.97;;;21.07;;
62788;SDS011;66401;42.016;21.454;2023-03-01T10:21:05;44.00;;;21.37;;
62788;SDS011;66401;42.016;21.454;2023-03-01T10:23:40;39.47;;;20.53;;
62788;SDS011;66401;42.016;21.454;2023-03-01T10:29:07;42.23;;;20.73;;
62788;SDS011;66401;42.016;21.454;2023-03-01T10:31:52;63.50;;;26.10;;
62788;SDS011;66401;42.016;21.454;2023-03-01T10:34:40;65.07;;;25.73;;
62788;SDS011;66401;42.016;21.454;2023-03-01T10:37:13;45.33;;;21.77;;
62788;SDS011;66401;42.016;21.454;2023-03-01T10:39:54;51.37;;;21.53;;
62788;SDS011;66401;42.016;21.454;2023-03-01T10:42:31;41.03;;;20.33;;
62788;SDS011;66401;42.016;21.454;2023-03-01T10:45:02;35.30;;;18.73;;
62788;SDS011;66401;42.016;21.454;2023-03-01T10:48:16;40.33;;;19.30;;
62788;SDS011;66401;42.016;21.454;2023-03-01T10:50:49;31.87;;;17.00;;
62788;SDS011;66401;42.016;21.454;2023-03-01T10:56:00;31.40;;;16.40;;
62788;SDS011;66401;42.016;21.454;2023-03-01T10:58:31;29.00;;;16.17;;
62788;SDS011;66401;42.016;21.454;2023-03-01T11:01:00;28.67;;;15.03;;
62788;SDS011;66401;42.016;21.454;2023-03-01T11:03:32;25.03;;;14.70;;
62788;SDS011;66401;42.016;21.454;2023-03-01T11:06:05;26.43;;;15.17;;
62788;SDS011;66401;42.016;21.454;2023-03-01T11:08:41;23.30;;;13.57;;
62788;SDS011;66401;42.016;21.454;2023-03-01T11:13:37;24.23;;;15.27;;
62788;SDS011;66401;42.016;21.454;2023-03-01T11:16:14;22.53;;;13.97;;
62788;SDS011;66401;42.016;21.454;2023-03-01T11:18:55;25.67;;;13.80;;
62788;SDS011;66401;42.016;21.454;2023-03-01T11:21:22;24.97;;;14.07;;
62788;SDS011;66401;42.016;21.454;2023-03-01T11:23:49;22.07;;;14.07;;
62788;SDS011;66401;42.016;21.454;2023-03-01T11:26:15;24.97;;;13.77;;
62788;SDS011;66401;42.016;21.454;2023-03-01T11:28:43;24.97;;;14.60;;
62788;SDS011;66401;42.016;21.454;2023-03-01T11:31:16;28.07;;;15.07;;
62788;SDS011;66401;42.016;21.454;2023-03-01T11:33:53;26.43;;;15.00;;
62788;SDS011;66401;42.016;21.454;2023-03-01T11:39:12;24.63;;;14.40;;
62788;SDS011;66401;42.016;21.454;2023-03-01T11:41:43;25.43;;;14.83;;
62788;SDS011;66401;42.016;21.454;2023-03-01T11:44:18;26.93;;;15.33;;
62788;SDS011;66401;42.016;21.454;2023-03-01T11:46:51;24.03;;;14.43;;
62788;SDS011;66401;42.016;21.454;2023-03-01T12:00:43;24.60;;;14.60;;
62788;SDS011;66401;42.016;21.454;2023-03-01T12:08:40;26.50;;;15.63;;
62788;SDS011;66401;42.016;21.454;2023-03-01T12:11:23;29.07;;;16.30;;
62788;SDS011;66401;42.016;21.454;2023-03-01T12:16:40;26.73;;;14.00;;
62788;SDS011;66401;42.016;21.454;2023-03-01T12:27:39;25.40;;;15.37;;
62788;SDS011;66401;42.016;21.454;2023-03-01T12:36:24;35.30;;;18.40;;
62788;SDS011;66401;42.016;21.454;2023-03-01T12:44:30;33.63;;;20.07;;
62788;SDS011;66401;42.016;21.454;2023-03-01T12:47:42;36.17;;;20.73;;
62788;SDS011;66401;42.016;21.454;2023-03-01T12:50:26;39.37;;;20.37;;
62788;SDS011;66401;42.016;21.454;2023-03-01T12:53:02;38.47;;;21.50;;
62788;SDS011;66401;42.016;21.454;2023-03-01T12:55:29;32.13;;;19.17;;
62788;SDS011;66401;42.016;21.454;2023-03-01T13:03:26;34.33;;;18.97;;
62788;SDS011;66401;42.016;21.454;2023-03-01T13:06:19;34.13;;;20.43;;
62788;SDS011;66401;42.016;21.454;2023-03-01T13:11:40;32.17;;;18.83;;
62788;SDS011;66401;42.016;21.454;2023-03-01T13:16:45;30.40;;;18.20;;
62788;SDS011;66401;42.016;21.454;2023-03-01T13:19:18;33.80;;;18.93;;
62788;SDS011;66401;42.016;21.454;2023-03-01T13:21:46;36.20;;;19.03;;
62788;SDS011;66401;42.016;21.454;2023-03-01T13:32:23;35.87;;;18.83;;
62788;SDS011;66401;42.016;21.454;2023-03-01T13:35:02;31.37;;;18.10;;
62788;SDS011;66401;42.016;21.454;2023-03-01T13:37:48;34.80;;;18.47;;
62788;SDS011;66401;42.016;21.454;2023-03-01T13:42:49;34.73;;;19.50;;
62788;SDS011;66401;42.016;21.454;2023-03-01T13:47:44;35.70;;;20.23;;
62788;SDS011;66401;42.016;21.454;2023-03-01T13:50:21;35.10;;;18.93;;
62788;SDS011;66401;42.016;21.454;2023-03-01T13:53:10;33.10;;;20.93;;
62788;SDS011;66401;42.016;21.454;2023-03-01T13:55:42;35.40;;;18.83;;
62788;SDS011;66401;42.016;21.454;2023-03-01T14:00:57;27.47;;;16.90;;
62788;SDS011;66401;42.016;21.454;2023-03-01T14:03:28;28.63;;;16.90;;
62788;SDS011;66401;42.016;21.454;2023-03-01T14:08:36;30.53;;;16.20;;
62788;SDS011;66401;42.016;21.454;2023-03-01T14:19:25;28.47;;;16.93;;
62788;SDS011;66401;42.016;21.454;2023-03-01T14:25:34;34.90;;;16.20;;
62788;SDS011;66401;42.016;21.454;2023-03-01T14:27:45;26.90;;;14.90;;
62788;SDS011;66401;42.016;21.454;2023-03-01T14:30:27;29.63;;;15.37;;
62788;SDS011;66401;42.016;21.454;2023-03-01T14:33:17;26.47;;;14.30;;
62788;SDS011;66401;42.016;21.454;2023-03-01T14:38:53;28.00;;;14.03;;
62788;SDS011;66401;42.016;21.454;2023-03-01T14:41:23;28.73;;;15.50;;
62788;SDS011;66401;42.016;21.454;2023-03-01T14:43:51;26.70;;;14.27;;
62788;SDS011;66401;42.016;21.454;2023-03-01T14:46:27;28.07;;;14.73;;
62788;SDS011;66401;42.016;21.454;2023-03-01T14:48:57;24.93;;;14.30;;
62788;SDS011;66401;42.016;21.454;2023-03-01T14:51:28;27.70;;;14.17;;
62788;SDS011;66401;42.016;21.454;2023-03-01T14:53:54;29.40;;;14.60;;
62788;SDS011;66401;42.016;21.454;2023-03-01T14:56:20;34.40;;;17.07;;
62788;SDS011;66401;42.016;21.454;2023-03-01T14:58:46;27.40;;;14.83;;
62788;SDS011;66401;42.016;21.454;2023-03-01T15:01:16;28.37;;;15.07;;
62788;SDS011;66401;42.016;21.454;2023-03-01T15:03:44;31.77;;;15.47;;
62788;SDS011;66401;42.016;21.454;2023-03-01T15:06:14;30.33;;;14.63;;
62788;SDS011;66401;42.016;21.454;2023-03-01T15:08:44;29.40;;;16.10;;
62788;SDS011;66401;42.016;21.454;2023-03-01T15:13:39;32.47;;;16.00;;
62788;SDS011;66401;42.016;21.454;2023-03-01T15:16:06;36.07;;;15.00;;
62788;SDS011;66401;42.016;21.454;2023-03-01T15:18:43;35.23;;;16.97;;
62788;SDS011;66401;42.016;21.454;2023-03-01T15:21:28;33.87;;;18.37;;
62788;SDS011;66401;42.016;21.454;2023-03-01T15:23:58;39.87;;;17.30;;
62788;SDS011;66401;42.016;21.454;2023-03-01T15:26:33;31.40;;;15.97;;
62788;SDS011;66401;42.016;21.454;2023-03-01T15:29:02;32.10;;;16.83;;
62788;SDS011;66401;42.016;21.454;2023-03-01T15:31:32;32.57;;;17.80;;
62788;SDS011;66401;42.016;21.454;2023-03-01T15:34:22;30.97;;;17.90;;
62788;SDS011;66401;42.016;21.454;2023-03-01T15:36:51;40.30;;;18.60;;
62788;SDS011;66401;42.016;21.454;2023-03-01T15:39:38;36.60;;;18.57;;
62788;SDS011;66401;42.016;21.454;2023-03-01T15:42:12;35.03;;;19.57;;
62788;SDS011;66401;42.016;21.454;2023-03-01T15:45:11;34.00;;;18.77;;
62788;SDS011;66401;42.016;21.454;2023-03-01T15:47:47;40.17;;;21.83;;
62788;SDS011;66401;42.016;21.454;2023-03-01T15:50:23;40.07;;;22.67;;
62788;SDS011;66401;42.016;21.454;2023-03-01T15:52:50;35.53;;;21.13;;
62788;SDS011;66401;42.016;21.454;2023-03-01T15:55:24;42.70;;;22.57;;
62788;SDS011;66401;42.016;21.454;2023-03-01T15:58:01;40.27;;;22.47;;
62788;SDS011;66401;42.016;21.454;2023-03-01T16:00:30;42.07;;;23.83;;
62788;SDS011;66401;42.016;21.454;2023-03-01T16:02:55;41.77;;;24.90;;
62788;SDS011;66401;42.016;21.454;2023-03-01T16:05:27;43.40;;;22.13;;
62788;SDS011;66401;42.016;21.454;2023-03-01T16:07:58;45.73;;;23.47;;
62788;SDS011;66401;42.016;21.454;2023-03-01T16:10:23;40.00;;;23.93;;
62788;SDS011;66401;42.016;21.454;2023-03-01T16:12:50;44.27;;;23.57;;
62788;SDS011;66401;42.016;21.454;2023-03-01T16:15:27;46.90;;;22.83;;
62788;SDS011;66401;42.016;21.454;2023-03-01T16:17:54;37.93;;;21.77;;
62788;SDS011;66401;42.016;21.454;2023-03-01T16:20:20;41.03;;;21.63;;
62788;SDS011;66401;42.016;21.454;2023-03-01T16:22:47;36.23;;;22.23;;
62788;SDS011;66401;42.016;21.454;2023-03-01T16:25:13;42.07;;;22.43;;
62788;SDS011;66401;42.016;21.454;2023-03-01T16:27:44;37.70;;;22.30;;
62788;SDS011;66401;42.016;21.454;2023-03-01T16:30:11;42.63;;;21.83;;
62788;SDS011;66401;42.016;21.454;2023-03-01T16:32:38;43.03;;;22.37;;
62788;SDS011;66401;42.016;21.454;2023-03-01T16:35:05;39.00;;;20.10;;
62788;SDS011;66401;42.016;21.454;2023-03-01T16:37:32;43.10;;;22.23;;